createdAt,value
2023-04-27T00:00:56.728Z,0.00
2023-04-27T00:01:56.750Z,0.00
2023-04-27T00:02:57.076Z,0.00
2023-04-27T00:03:56.796Z,0.00
2023-04-27T00:04:56.910Z,0.00
2023-04-27T00:05:56.916Z,0.00
2023-04-27T00:06:56.673Z,0.00
2023-04-27T00:07:56.657Z,0.00
2023-04-27T00:08:56.649Z,0.00
2023-04-27T00:09:56.650Z,0.00
2023-04-27T00:10:56.629Z,0.00
2023-04-27T00:11:56.606Z,0.00
2023-04-27T00:12:56.638Z,0.00
2023-04-27T00:13:56.611Z,0.00
2023-04-27T00:14:56.625Z,0.00
2023-04-27T00:15:56.617Z,0.00
2023-04-27T00:16:56.583Z,0.00
2023-04-27T00:17:56.571Z,0.00
2023-04-27T00:18:56.595Z,0.00
2023-04-27T00:19:56.537Z,0.00
2023-04-27T00:20:56.608Z,0.00
2023-04-27T00:21:56.500Z,0.00
2023-04-27T00:22:56.501Z,0.00
2023-04-27T00:23:56.502Z,0.00
2023-04-27T00:24:56.641Z,0.00
2023-04-27T00:25:56.463Z,0.00
2023-04-27T00:26:56.466Z,0.00
2023-04-27T00:27:56.441Z,0.00
2023-04-27T00:28:56.434Z,0.00
2023-04-27T00:29:56.525Z,0.00
2023-04-27T00:30:56.419Z,0.00
2023-04-27T00:31:56.445Z,0.00
2023-04-27T00:32:56.444Z,0.00
2023-04-27T00:33:56.370Z,0.00
2023-04-27T00:34:56.387Z,0.00
2023-04-27T00:35:56.372Z,0.00
2023-04-27T00:36:56.346Z,0.00
2023-04-27T00:37:56.349Z,0.00
2023-04-27T00:38:56.341Z,0.00
2023-04-27T00:39:56.329Z,0.00
2023-04-27T00:40:56.301Z,0.00
2023-04-27T00:41:56.310Z,0.00
2023-04-27T00:42:56.292Z,0.00
2023-04-27T00:43:56.272Z,0.00
2023-04-27T00:44:56.270Z,0.00
2023-04-27T00:45:56.286Z,0.00
2023-04-27T00:46:56.266Z,0.00
2023-04-27T00:47:56.301Z,0.00
2023-04-27T00:48:56.234Z,0.00
2023-04-27T00:49:56.225Z,0.00
2023-04-27T00:50:56.283Z,0.00
2023-04-27T00:51:56.182Z,0.00
2023-04-27T00:52:56.188Z,0.00
2023-04-27T00:53:56.185Z,0.00
2023-04-27T00:54:56.174Z,0.00
2023-04-27T00:55:56.144Z,0.00
2023-04-27T00:56:56.140Z,0.00
2023-04-27T00:57:56.133Z,0.00
2023-04-27T00:58:56.159Z,0.00
2023-04-27T00:59:56.124Z,0.00
2023-04-27T01:00:56.131Z,0.00
2023-04-27T01:01:56.106Z,0.00
2023-04-27T01:02:56.215Z,0.00
2023-04-27T01:03:56.235Z,0.00
2023-04-27T01:04:56.076Z,0.00
2023-04-27T01:05:56.035Z,0.00
2023-04-27T01:06:56.017Z,0.00
2023-04-27T01:07:56.057Z,0.00
2023-04-27T01:08:56.002Z,0.00
2023-04-27T01:09:56.006Z,0.00
2023-04-27T01:10:56.017Z,0.00
2023-04-27T01:11:55.983Z,0.00
2023-04-27T01:12:55.969Z,0.00
2023-04-27T01:13:55.968Z,0.00
2023-04-27T01:14:55.962Z,0.00
2023-04-27T01:15:55.925Z,0.00
2023-04-27T01:16:55.981Z,0.00
2023-04-27T01:17:55.958Z,0.00
2023-04-27T01:18:55.908Z,0.00
2023-04-27T01:19:55.910Z,0.00
2023-04-27T01:20:55.887Z,0.00
2023-04-27T01:21:55.864Z,0.00
2023-04-27T01:22:55.859Z,0.00
2023-04-27T01:23:55.858Z,0.00
2023-04-27T01:24:55.857Z,0.00
2023-04-27T01:25:55.819Z,0.00
2023-04-27T01:26:55.818Z,0.00
2023-04-27T01:27:55.811Z,0.00
2023-04-27T01:28:55.821Z,0.00
2023-04-27T01:29:55.812Z,0.00
2023-04-27T01:30:55.802Z,0.00
2023-04-27T01:31:55.770Z,0.00
2023-04-27T01:32:55.861Z,0.00
2023-04-27T01:33:55.732Z,0.00
2023-04-27T01:34:55.781Z,0.00
2023-04-27T01:35:55.766Z,0.00
2023-04-27T01:36:55.720Z,0.00
2023-04-27T01:37:55.691Z,0.00
2023-04-27T01:38:55.696Z,0.00
2023-04-27T01:39:55.683Z,0.00
2023-04-27T01:40:55.679Z,0.00
2023-04-27T01:41:57.857Z,0.00
2023-04-27T01:42:55.659Z,0.00
2023-04-27T01:43:55.675Z,0.00
2023-04-27T01:44:55.654Z,0.00
2023-04-27T01:45:55.646Z,0.00
2023-04-27T01:46:55.608Z,0.00
2023-04-27T01:47:55.643Z,0.00
2023-04-27T01:48:55.580Z,0.00
2023-04-27T01:49:55.712Z,0.00
2023-04-27T01:50:55.568Z,0.00
2023-04-27T01:51:55.546Z,0.00
2023-04-27T01:52:55.540Z,0.00
2023-04-27T01:53:55.529Z,0.00
2023-04-27T01:54:55.541Z,0.00
2023-04-27T01:55:55.592Z,0.00
2023-04-27T01:56:55.514Z,0.00
2023-04-27T01:57:55.478Z,0.00
2023-04-27T01:58:55.526Z,0.00
2023-04-27T01:59:55.469Z,0.00
2023-04-27T02:00:55.464Z,0.00
2023-04-27T02:01:55.531Z,0.00
2023-04-27T02:02:55.559Z,0.00
2023-04-27T02:03:55.625Z,0.00
2023-04-27T02:04:55.589Z,0.00
2023-04-27T02:05:55.453Z,0.00
2023-04-27T02:06:55.388Z,0.00
2023-04-27T02:07:55.386Z,0.00
2023-04-27T02:08:55.373Z,0.00
2023-04-27T02:09:55.370Z,0.00
2023-04-27T02:10:55.349Z,0.00
2023-04-27T02:11:55.340Z,0.00
2023-04-27T02:12:55.330Z,0.00
2023-04-27T02:13:55.313Z,0.00
2023-04-27T02:14:55.361Z,0.00
2023-04-27T02:15:55.353Z,0.00
2023-04-27T02:16:55.287Z,0.00
2023-04-27T02:17:55.343Z,0.00
2023-04-27T02:18:55.263Z,0.00
2023-04-27T02:19:55.287Z,0.00
2023-04-27T02:20:55.244Z,0.00
2023-04-27T02:21:55.227Z,0.00
2023-04-27T02:22:55.224Z,0.00
2023-04-27T02:23:55.211Z,0.00
2023-04-27T02:24:55.206Z,0.00
2023-04-27T02:25:55.207Z,0.00
2023-04-27T02:26:55.192Z,0.00
2023-04-27T02:27:55.181Z,0.00
2023-04-27T02:28:55.204Z,0.00
2023-04-27T02:29:55.168Z,0.00
2023-04-27T02:30:55.144Z,0.00
2023-04-27T02:31:55.188Z,0.00
2023-04-27T02:32:55.133Z,0.00
2023-04-27T02:33:55.157Z,0.00
2023-04-27T02:34:55.150Z,0.00
2023-04-27T02:35:55.077Z,0.00
2023-04-27T02:36:55.072Z,0.00
2023-04-27T02:37:55.112Z,0.00
2023-04-27T02:38:55.078Z,0.00
2023-04-27T02:39:55.043Z,0.00
2023-04-27T02:40:55.062Z,0.00
2023-04-27T02:41:55.042Z,0.00
2023-04-27T02:42:55.021Z,0.00
2023-04-27T02:43:54.997Z,0.00
2023-04-27T02:44:55.001Z,0.00
2023-04-27T02:45:55.019Z,0.00
2023-04-27T02:46:55.083Z,0.00
2023-04-27T02:47:54.992Z,0.00
2023-04-27T02:48:54.976Z,0.00
2023-04-27T02:49:54.949Z,0.00
2023-04-27T02:50:54.916Z,0.00
2023-04-27T02:51:54.946Z,0.00
2023-04-27T02:52:54.909Z,0.00
2023-04-27T02:53:54.893Z,0.00
2023-04-27T02:54:54.900Z,0.00
2023-04-27T02:55:54.926Z,0.00
2023-04-27T02:56:54.881Z,0.00
2023-04-27T02:57:54.839Z,0.00
2023-04-27T02:58:54.820Z,0.00
2023-04-27T02:59:54.840Z,0.00
2023-04-27T03:00:54.814Z,0.00
2023-04-27T03:01:54.795Z,0.00
2023-04-27T03:02:54.849Z,0.00
2023-04-27T03:03:54.976Z,0.00
2023-04-27T03:04:54.785Z,0.00
2023-04-27T03:05:54.773Z,0.00
2023-04-27T03:06:54.763Z,0.00
2023-04-27T03:07:54.740Z,0.00
2023-04-27T03:08:54.744Z,0.00
2023-04-27T03:09:54.725Z,0.00
2023-04-27T03:10:54.736Z,0.00
2023-04-27T03:11:54.698Z,0.00
2023-04-27T03:12:54.688Z,0.00
2023-04-27T03:13:54.673Z,0.00
2023-04-27T03:14:54.666Z,0.00
2023-04-27T03:15:54.707Z,0.00
2023-04-27T03:16:54.690Z,0.00
2023-04-27T03:17:54.698Z,0.00
2023-04-27T03:18:54.610Z,0.00
2023-04-27T03:19:54.616Z,0.00
2023-04-27T03:20:54.598Z,0.00
2023-04-27T03:21:54.587Z,0.00
2023-04-27T03:22:54.569Z,0.00
2023-04-27T03:23:54.570Z,0.00
2023-04-27T03:24:54.576Z,0.00
2023-04-27T03:25:54.560Z,0.00
2023-04-27T03:26:54.532Z,0.00
2023-04-27T03:27:54.602Z,0.00
2023-04-27T03:28:54.506Z,0.00
2023-04-27T03:29:54.526Z,0.00
2023-04-27T03:30:54.502Z,0.00
2023-04-27T03:31:54.592Z,0.00
2023-04-27T03:32:54.527Z,0.00
2023-04-27T03:33:54.469Z,0.00
2023-04-27T03:34:54.453Z,0.00
2023-04-27T03:35:54.451Z,0.00
2023-04-27T03:36:54.570Z,0.00
2023-04-27T03:37:54.440Z,0.00
2023-04-27T03:38:54.414Z,0.00
2023-04-27T03:39:54.401Z,0.00
2023-04-27T03:40:54.393Z,0.00
2023-04-27T03:41:54.371Z,0.00
2023-04-27T03:42:54.358Z,0.00
2023-04-27T03:43:54.375Z,0.00
2023-04-27T03:44:54.423Z,0.00
2023-04-27T03:45:54.355Z,0.00
2023-04-27T03:46:54.328Z,0.00
2023-04-27T03:47:54.369Z,0.00
2023-04-27T03:48:54.420Z,0.00
2023-04-27T03:49:54.297Z,0.00
2023-04-27T03:50:54.285Z,0.00
2023-04-27T03:51:54.260Z,0.00
2023-04-27T03:52:54.255Z,0.00
2023-04-27T03:53:54.245Z,0.00
2023-04-27T03:54:54.243Z,0.00
2023-04-27T03:55:54.234Z,0.00
2023-04-27T03:56:54.241Z,0.00
2023-04-27T03:57:54.207Z,0.00
2023-04-27T03:58:54.204Z,0.00
2023-04-27T03:59:54.195Z,0.00
2023-04-27T04:00:54.180Z,0.00
2023-04-27T04:01:54.174Z,0.00
2023-04-27T04:02:54.303Z,0.00
2023-04-27T04:03:54.363Z,0.00
2023-04-27T04:04:54.314Z,0.00
2023-04-27T04:05:54.122Z,0.00
2023-04-27T04:06:54.100Z,0.00
2023-04-27T04:07:54.098Z,0.00
2023-04-27T04:08:54.094Z,5.62
2023-04-27T04:09:54.093Z,5.62
2023-04-27T04:10:54.076Z,5.62
2023-04-27T04:11:54.057Z,5.62
2023-04-27T04:12:54.045Z,5.62
2023-04-27T04:13:54.029Z,5.62
2023-04-27T04:14:54.048Z,5.62
2023-04-27T04:15:54.060Z,11.25
2023-04-27T04:16:54.018Z,11.25
2023-04-27T04:17:54.038Z,11.25
2023-04-27T04:18:53.981Z,11.25
2023-04-27T04:19:54.011Z,16.88
2023-04-27T04:20:53.961Z,16.88
2023-04-27T04:21:53.966Z,16.88
2023-04-27T04:22:53.951Z,22.50
2023-04-27T04:23:53.958Z,22.50
2023-04-27T04:24:53.910Z,22.50
2023-04-27T04:25:53.926Z,22.50
2023-04-27T04:26:53.912Z,28.12
2023-04-27T04:27:53.897Z,28.12
2023-04-27T04:28:53.875Z,33.75
2023-04-27T04:29:53.874Z,33.75
2023-04-27T04:30:53.850Z,33.75
2023-04-27T04:31:53.844Z,39.38
2023-04-27T04:32:53.990Z,39.38
2023-04-27T04:33:53.811Z,39.38
2023-04-27T04:34:53.831Z,45.00
2023-04-27T04:35:53.809Z,45.00
2023-04-27T04:36:53.786Z,50.62
2023-04-27T04:37:53.764Z,50.62
2023-04-27T04:38:53.774Z,56.25
2023-04-27T04:39:53.816Z,56.25
2023-04-27T04:40:53.775Z,61.88
2023-04-27T04:41:53.779Z,67.50
2023-04-27T04:42:53.720Z,67.50
2023-04-27T04:43:53.705Z,73.12
2023-04-27T04:44:53.711Z,78.75
2023-04-27T04:45:53.678Z,78.75
2023-04-27T04:46:53.757Z,84.38
2023-04-27T04:47:53.719Z,84.38
2023-04-27T04:48:54.869Z,90.00
2023-04-27T04:49:53.669Z,90.00
2023-04-27T04:50:53.636Z,95.62
2023-04-27T04:51:53.615Z,101.25
2023-04-27T04:52:53.618Z,101.25
2023-04-27T04:53:53.593Z,101.25
2023-04-27T04:54:53.607Z,112.50
2023-04-27T04:55:53.579Z,106.88
2023-04-27T04:56:53.574Z,112.50
2023-04-27T04:57:53.576Z,118.12
2023-04-27T04:58:53.550Z,118.12
2023-04-27T04:59:53.587Z,118.12
2023-04-27T05:00:53.531Z,123.75
2023-04-27T05:01:53.543Z,123.75
2023-04-27T05:02:53.711Z,129.38
2023-04-27T05:03:53.621Z,135.00
2023-04-27T05:04:53.535Z,140.62
2023-04-27T05:05:53.554Z,140.62
2023-04-27T05:06:53.466Z,146.25
2023-04-27T05:07:53.444Z,146.25
2023-04-27T05:08:53.451Z,151.88
2023-04-27T05:09:53.501Z,151.88
2023-04-27T05:10:53.480Z,151.88
2023-04-27T05:11:53.405Z,151.88
2023-04-27T05:12:53.407Z,157.50
2023-04-27T05:13:53.450Z,157.50
2023-04-27T05:14:53.397Z,163.12
2023-04-27T05:15:53.367Z,157.50
2023-04-27T05:16:53.362Z,157.50
2023-04-27T05:17:53.359Z,157.50
2023-04-27T05:18:53.336Z,163.12
2023-04-27T05:19:53.357Z,168.75
2023-04-27T05:20:53.349Z,168.75
2023-04-27T05:21:53.293Z,174.38
2023-04-27T05:22:53.290Z,180.00
2023-04-27T05:23:53.331Z,191.25
2023-04-27T05:24:53.300Z,196.88
2023-04-27T05:25:53.270Z,208.12
2023-04-27T05:26:53.258Z,219.38
2023-04-27T05:27:53.233Z,225.00
2023-04-27T05:28:53.232Z,236.25
2023-04-27T05:29:53.233Z,247.50
2023-04-27T05:30:53.204Z,241.88
2023-04-27T05:31:53.224Z,241.88
2023-04-27T05:32:53.226Z,247.50
2023-04-27T05:33:53.178Z,247.50
2023-04-27T05:34:53.172Z,253.12
2023-04-27T05:35:53.262Z,253.12
2023-04-27T05:36:53.140Z,253.12
2023-04-27T05:37:53.130Z,253.12
2023-04-27T05:38:53.125Z,253.12
2023-04-27T05:39:53.123Z,253.12
2023-04-27T05:40:55.077Z,258.75
2023-04-27T05:41:53.087Z,275.62
2023-04-27T05:42:53.134Z,281.25
2023-04-27T05:43:53.063Z,286.88
2023-04-27T05:44:53.087Z,286.88
2023-04-27T05:45:53.096Z,331.88
2023-04-27T05:46:53.037Z,405.00
2023-04-27T05:47:53.095Z,427.50
2023-04-27T05:48:53.032Z,427.50
2023-04-27T05:49:53.086Z,450.00
2023-04-27T05:50:52.996Z,461.25
2023-04-27T05:51:53.008Z,517.50
2023-04-27T05:52:52.988Z,601.88
2023-04-27T05:53:52.977Z,607.50
2023-04-27T05:54:52.963Z,556.88
2023-04-27T05:55:52.940Z,523.12
2023-04-27T05:56:52.976Z,523.12
2023-04-27T05:58:06.616Z,528.75
2023-04-27T05:58:53.918Z,528.75
2023-04-27T05:59:52.900Z,534.38
2023-04-27T06:00:52.911Z,545.62
2023-04-27T06:01:52.910Z,562.50
2023-04-27T06:02:53.029Z,579.38
2023-04-27T06:03:53.040Z,590.62
2023-04-27T06:04:52.915Z,590.62
2023-04-27T06:05:52.961Z,601.88
2023-04-27T06:06:52.833Z,607.50
2023-04-27T06:07:52.804Z,613.12
2023-04-27T06:08:52.797Z,613.12
2023-04-27T06:09:52.795Z,630.00
2023-04-27T06:10:52.767Z,630.00
2023-04-27T06:11:52.761Z,646.88
2023-04-27T06:12:52.765Z,658.12
2023-04-27T06:13:52.827Z,675.00
2023-04-27T06:14:52.750Z,675.00
2023-04-27T06:15:52.739Z,691.88
2023-04-27T06:16:52.716Z,714.38
2023-04-27T06:17:52.931Z,725.62
2023-04-27T06:18:52.693Z,568.12
2023-04-27T06:19:52.739Z,753.75
2023-04-27T06:20:52.670Z,765.00
2023-04-27T06:21:52.658Z,770.62
2023-04-27T06:22:52.678Z,770.62
2023-04-27T06:23:52.669Z,787.50
2023-04-27T06:24:52.671Z,810.00
2023-04-27T06:25:52.652Z,826.88
2023-04-27T06:26:52.622Z,843.75
2023-04-27T06:27:52.585Z,855.00
2023-04-27T06:28:52.586Z,871.88
2023-04-27T06:29:52.579Z,883.12
2023-04-27T06:30:52.561Z,911.25
2023-04-27T06:31:52.621Z,911.25
2023-04-27T06:32:52.669Z,916.88
2023-04-27T06:33:52.536Z,945.00
2023-04-27T06:34:52.538Z,967.50
2023-04-27T06:35:52.509Z,961.88
2023-04-27T06:36:52.492Z,916.88
2023-04-27T06:37:52.790Z,894.38
2023-04-27T06:38:52.466Z,967.50
2023-04-27T06:39:52.465Z,1001.25
2023-04-27T06:40:52.479Z,1018.12
2023-04-27T06:41:52.467Z,1023.75
2023-04-27T06:42:52.443Z,1040.62
2023-04-27T06:43:53.367Z,1074.38
2023-04-27T06:44:52.461Z,1091.25
2023-04-27T06:45:52.403Z,1102.50
2023-04-27T06:46:52.382Z,1102.50
2023-04-27T06:47:52.484Z,1119.38
2023-04-27T06:48:52.357Z,1147.50
2023-04-27T06:49:52.375Z,1170.00
2023-04-27T06:50:52.363Z,1170.00
2023-04-27T06:51:52.530Z,1186.88
2023-04-27T06:52:52.315Z,1215.00
2023-04-27T06:53:53.100Z,1209.38
2023-04-27T06:54:52.307Z,1203.75
2023-04-27T06:55:52.301Z,1108.12
2023-04-27T06:56:52.314Z,1220.62
2023-04-27T06:57:52.269Z,1265.62
2023-04-27T06:58:52.250Z,1282.50
2023-04-27T06:59:52.256Z,1299.38
2023-04-27T07:00:52.265Z,1327.50
2023-04-27T07:01:52.434Z,1338.75
2023-04-27T07:02:52.310Z,1361.25
2023-04-27T07:03:52.294Z,1378.12
2023-04-27T07:04:52.531Z,1383.75
2023-04-27T07:05:52.175Z,1400.62
2023-04-27T07:06:52.169Z,1434.38
2023-04-27T07:07:52.166Z,1462.50
2023-04-27T07:08:52.148Z,1490.62
2023-04-27T07:09:52.136Z,1462.50
2023-04-27T07:10:52.124Z,1406.25
2023-04-27T07:11:52.107Z,1372.50
2023-04-27T07:12:52.101Z,1378.12
2023-04-27T07:13:52.158Z,1231.88
2023-04-27T07:14:52.099Z,1305.00
2023-04-27T07:15:52.078Z,1305.00
2023-04-27T07:16:52.067Z,1501.88
2023-04-27T07:17:52.133Z,1563.75
2023-04-27T07:18:52.038Z,1642.50
2023-04-27T07:19:52.041Z,1659.38
2023-04-27T07:20:52.018Z,1603.12
2023-04-27T07:21:52.036Z,1485.00
2023-04-27T07:22:52.039Z,1411.88
2023-04-27T07:23:53.462Z,1383.75
2023-04-27T07:24:51.988Z,1293.75
2023-04-27T07:25:52.087Z,1355.62
2023-04-27T07:26:51.984Z,1468.12
2023-04-27T07:27:51.938Z,1468.12
2023-04-27T07:28:51.929Z,1552.50
2023-04-27T07:29:52.099Z,1586.25
2023-04-27T07:30:51.922Z,1636.88
2023-04-27T07:31:52.293Z,1698.75
2023-04-27T07:32:51.936Z,1535.62
2023-04-27T07:33:51.877Z,1490.62
2023-04-27T07:34:54.207Z,1490.62
2023-04-27T07:35:51.870Z,1676.25
2023-04-27T07:36:51.836Z,1434.38
2023-04-27T07:37:51.829Z,1513.12
2023-04-27T07:38:51.825Z,1395.00
2023-04-27T07:39:51.814Z,1575.00
2023-04-27T07:40:51.796Z,1456.88
2023-04-27T07:41:51.787Z,1569.38
2023-04-27T07:42:51.781Z,1816.88
2023-04-27T07:43:51.757Z,1794.38
2023-04-27T07:44:51.802Z,1816.88
2023-04-27T07:45:51.767Z,1912.50
2023-04-27T07:46:51.732Z,1918.12
2023-04-27T07:47:51.729Z,1968.75
2023-04-27T07:48:51.711Z,1957.50
2023-04-27T07:49:51.731Z,1935.00
2023-04-27T07:50:51.682Z,1968.75
2023-04-27T07:51:51.705Z,2036.25
2023-04-27T07:52:51.669Z,2143.12
2023-04-27T07:53:51.659Z,2019.38
2023-04-27T07:54:51.652Z,2025.00
2023-04-27T07:55:51.635Z,2182.50
2023-04-27T07:56:51.623Z,2058.75
2023-04-27T07:57:51.655Z,1653.75
2023-04-27T07:58:51.600Z,1665.00
2023-04-27T07:59:51.656Z,1985.62
2023-04-27T08:00:51.586Z,2008.12
2023-04-27T08:01:51.600Z,2047.50
2023-04-27T08:02:51.764Z,2148.75
2023-04-27T08:03:51.780Z,2120.62
2023-04-27T08:04:51.910Z,2148.75
2023-04-27T08:05:51.785Z,2115.00
2023-04-27T08:06:51.919Z,2098.12
2023-04-27T08:07:52.155Z,2160.00
2023-04-27T08:08:51.496Z,2278.12
2023-04-27T08:09:51.513Z,2430.00
2023-04-27T08:10:51.480Z,2238.75
2023-04-27T08:11:51.466Z,2176.88
2023-04-27T08:12:51.586Z,2250.00
2023-04-27T08:13:51.546Z,2283.75
2023-04-27T08:14:51.460Z,2295.00
2023-04-27T08:15:51.408Z,2199.38
2023-04-27T08:16:51.433Z,2075.62
2023-04-27T08:17:51.414Z,2165.62
2023-04-27T08:18:51.386Z,2306.25
2023-04-27T08:19:51.394Z,2323.12
2023-04-27T08:20:51.362Z,2317.50
2023-04-27T08:21:51.610Z,2323.12
2023-04-27T08:22:51.395Z,2244.38
2023-04-27T08:23:51.334Z,2255.62
2023-04-27T08:24:51.336Z,2491.88
2023-04-27T08:25:51.377Z,2531.25
2023-04-27T08:26:51.331Z,2716.88
2023-04-27T08:27:51.283Z,2880.00
2023-04-27T08:28:51.358Z,2745.00
2023-04-27T08:29:51.294Z,2733.75
2023-04-27T08:30:51.283Z,2953.12
2023-04-27T08:31:51.320Z,2925.00
2023-04-27T08:32:51.311Z,2806.88
2023-04-27T08:33:51.220Z,2913.75
2023-04-27T08:34:51.283Z,2778.75
2023-04-27T08:35:51.243Z,2767.50
2023-04-27T08:36:51.215Z,2930.62
2023-04-27T08:37:51.208Z,2998.12
2023-04-27T08:38:51.168Z,3166.88
2023-04-27T08:39:51.225Z,3065.62
2023-04-27T08:40:51.156Z,2896.88
2023-04-27T08:41:51.137Z,2970.00
2023-04-27T08:42:51.128Z,2891.25
2023-04-27T08:43:51.130Z,2790.00
2023-04-27T08:44:51.140Z,2913.75
2023-04-27T08:45:51.232Z,3065.62
2023-04-27T08:46:51.292Z,3127.50
2023-04-27T08:47:51.091Z,3178.12
2023-04-27T08:48:51.068Z,3189.38
2023-04-27T08:49:51.068Z,3442.50
2023-04-27T08:50:51.047Z,3003.75
2023-04-27T08:51:51.101Z,2790.00
2023-04-27T08:52:51.046Z,2520.00
2023-04-27T08:53:51.014Z,2896.88
2023-04-27T08:54:51.010Z,3285.00
2023-04-27T08:55:50.998Z,3453.75
2023-04-27T08:56:51.027Z,3448.12
2023-04-27T08:57:50.963Z,3144.38
2023-04-27T08:58:50.968Z,3268.12
2023-04-27T08:59:51.020Z,3588.75
2023-04-27T09:00:52.508Z,3515.62
2023-04-27T09:01:50.987Z,3594.38
2023-04-27T09:02:51.103Z,3639.38
2023-04-27T09:03:51.106Z,3549.38
2023-04-27T09:04:51.123Z,3706.88
2023-04-27T09:06:03.848Z,3583.12
2023-04-27T09:06:51.906Z,3549.38
2023-04-27T09:07:50.877Z,3931.88
2023-04-27T09:08:50.861Z,3881.25
2023-04-27T09:09:50.866Z,3611.25
2023-04-27T09:10:50.854Z,3735.00
2023-04-27T09:11:50.851Z,3611.25
2023-04-27T09:12:50.824Z,3493.12
2023-04-27T09:13:50.803Z,3735.00
2023-04-27T09:14:50.866Z,3656.25
2023-04-27T09:15:50.861Z,3555.00
2023-04-27T09:16:50.892Z,3695.62
2023-04-27T09:17:50.801Z,3813.75
2023-04-27T09:18:50.756Z,3802.50
2023-04-27T09:19:50.813Z,3909.38
2023-04-27T09:20:50.792Z,3600.00
2023-04-27T09:21:50.777Z,3459.38
2023-04-27T09:22:50.725Z,3588.75
2023-04-27T09:23:50.703Z,3943.12
2023-04-27T09:24:50.886Z,4145.62
2023-04-27T09:25:50.725Z,4168.12
2023-04-27T09:26:50.787Z,4066.88
2023-04-27T09:27:50.656Z,3774.38
2023-04-27T09:28:50.653Z,3960.00
2023-04-27T09:29:50.657Z,4089.38
2023-04-27T09:30:50.676Z,3566.25
2023-04-27T09:31:50.635Z,3560.62
2023-04-27T09:32:50.655Z,3493.12
2023-04-27T09:33:50.590Z,3594.38
2023-04-27T09:34:50.622Z,3661.88
2023-04-27T09:35:50.582Z,3712.50
2023-04-27T09:36:50.579Z,3819.38
2023-04-27T09:37:50.559Z,3690.00
2023-04-27T09:38:50.563Z,3886.88
2023-04-27T09:39:50.568Z,3808.12
2023-04-27T09:40:50.612Z,3746.25
2023-04-27T09:41:50.580Z,3521.25
2023-04-27T09:42:50.517Z,3420.00
2023-04-27T09:43:50.571Z,3526.88
2023-04-27T09:44:50.492Z,3813.75
2023-04-27T09:45:50.521Z,3600.00
2023-04-27T09:46:50.543Z,3819.38
2023-04-27T09:47:50.499Z,3735.00
2023-04-27T09:48:50.471Z,3847.50
2023-04-27T09:49:50.447Z,3746.25
2023-04-27T09:50:50.428Z,2840.62
2023-04-27T09:51:50.412Z,3268.12
2023-04-27T09:52:50.445Z,3352.50
2023-04-27T09:53:50.397Z,3380.62
2023-04-27T09:54:50.572Z,3526.88
2023-04-27T09:55:51.624Z,3313.12
2023-04-27T09:56:50.446Z,3853.12
2023-04-27T09:57:50.424Z,3948.75
2023-04-27T09:58:50.335Z,3414.38
2023-04-27T09:59:50.429Z,2986.88
2023-04-27T10:00:50.355Z,2311.88
2023-04-27T10:01:50.396Z,3178.12
2023-04-27T10:02:53.635Z,3521.25
2023-04-27T10:03:50.498Z,3358.12
2023-04-27T10:04:50.324Z,3285.00
2023-04-27T10:05:50.272Z,3020.62
2023-04-27T10:06:50.262Z,3363.75
2023-04-27T10:07:50.250Z,3403.12
2023-04-27T10:08:50.265Z,3172.50
2023-04-27T10:09:50.257Z,2863.12
2023-04-27T10:10:50.272Z,2745.00
2023-04-27T10:11:50.308Z,2896.88
2023-04-27T10:12:50.274Z,2756.25
2023-04-27T10:13:51.334Z,2818.12
2023-04-27T10:14:50.192Z,2998.12
2023-04-27T10:15:50.189Z,3144.38
2023-04-27T10:16:50.178Z,3009.38
2023-04-27T10:17:50.259Z,2750.62
2023-04-27T10:18:50.128Z,3009.38
2023-04-27T10:19:51.541Z,2745.00
2023-04-27T10:20:50.132Z,2919.38
2023-04-27T10:21:50.128Z,2863.12
2023-04-27T10:22:50.148Z,2711.25
2023-04-27T10:23:50.094Z,2908.12
2023-04-27T10:24:50.073Z,3031.88
2023-04-27T10:25:50.058Z,2835.00
2023-04-27T10:26:50.053Z,2491.88
2023-04-27T10:27:50.044Z,3324.38
2023-04-27T10:28:50.168Z,3515.62
2023-04-27T10:29:50.031Z,3093.75
2023-04-27T10:30:50.318Z,3262.50
2023-04-27T10:31:50.004Z,3279.38
2023-04-27T10:32:50.059Z,3150.00
2023-04-27T10:33:49.981Z,3195.00
2023-04-27T10:34:49.984Z,3026.25
2023-04-27T10:35:49.968Z,2986.88
2023-04-27T10:36:49.948Z,2773.12
2023-04-27T10:37:49.938Z,3009.38
2023-04-27T10:38:50.031Z,3105.00
2023-04-27T10:39:50.830Z,3048.75
2023-04-27T10:40:49.906Z,3211.88
2023-04-27T10:41:49.936Z,3195.00
2023-04-27T10:42:49.914Z,3200.62
2023-04-27T10:43:49.917Z,3465.00
2023-04-27T10:44:49.921Z,3881.25
2023-04-27T10:45:49.930Z,3982.50
2023-04-27T10:46:50.174Z,3858.75
2023-04-27T10:47:49.887Z,3746.25
2023-04-27T10:48:49.821Z,3521.25
2023-04-27T10:49:49.833Z,3802.50
2023-04-27T10:50:49.804Z,4050.00
2023-04-27T10:51:49.816Z,4021.88
2023-04-27T10:52:49.804Z,3886.88
2023-04-27T10:53:49.781Z,3571.88
2023-04-27T10:54:49.778Z,3335.62
2023-04-27T10:55:49.775Z,3313.12
2023-04-27T10:56:49.752Z,3667.50
2023-04-27T10:57:49.741Z,3757.50
2023-04-27T10:58:49.794Z,3403.12
2023-04-27T10:59:49.787Z,3504.38
2023-04-27T11:00:49.742Z,3223.12
2023-04-27T11:01:49.752Z,3178.12
2023-04-27T11:02:49.886Z,3279.38
2023-04-27T11:03:49.735Z,3369.38
2023-04-27T11:04:49.719Z,3549.38
2023-04-27T11:05:49.700Z,3200.62
2023-04-27T11:06:49.661Z,3780.00
2023-04-27T11:07:49.661Z,3628.12
2023-04-27T11:08:49.627Z,3903.75
2023-04-27T11:09:49.612Z,3825.00
2023-04-27T11:10:49.629Z,3937.50
2023-04-27T11:11:49.604Z,3639.38
2023-04-27T11:12:49.581Z,3358.12
2023-04-27T11:13:49.809Z,3043.12
2023-04-27T11:14:49.590Z,3217.50
2023-04-27T11:15:49.592Z,3341.25
2023-04-27T11:16:49.562Z,3363.75
2023-04-27T11:17:49.569Z,3290.62
2023-04-27T11:18:49.560Z,3380.62
2023-04-27T11:19:49.529Z,3577.50
2023-04-27T11:20:49.510Z,3408.75
2023-04-27T11:21:49.489Z,3577.50
2023-04-27T11:22:49.506Z,3172.50
2023-04-27T11:23:49.477Z,3172.50
2023-04-27T11:24:49.547Z,2829.38
2023-04-27T11:25:49.448Z,2941.88
2023-04-27T11:26:49.446Z,3116.25
2023-04-27T11:27:49.432Z,3431.25
2023-04-27T11:28:49.427Z,3510.00
2023-04-27T11:29:49.459Z,3538.12
2023-04-27T11:30:49.421Z,3470.62
2023-04-27T11:31:49.809Z,3290.62
2023-04-27T11:32:49.469Z,3009.38
2023-04-27T11:33:49.375Z,3043.12
2023-04-27T11:34:49.379Z,3155.62
2023-04-27T11:35:49.356Z,3380.62
2023-04-27T11:36:49.350Z,3318.75
2023-04-27T11:37:49.387Z,3166.88
2023-04-27T11:38:49.354Z,3189.38
2023-04-27T11:39:49.323Z,3121.88
2023-04-27T11:40:49.303Z,3391.88
2023-04-27T11:41:49.369Z,3166.88
2023-04-27T11:42:49.288Z,3240.00
2023-04-27T11:43:49.587Z,2857.50
2023-04-27T11:44:49.321Z,2851.88
2023-04-27T11:45:49.246Z,3009.38
2023-04-27T11:46:49.340Z,3166.88
2023-04-27T11:47:49.264Z,3380.62
2023-04-27T11:48:49.245Z,3459.38
2023-04-27T11:49:49.221Z,3369.38
2023-04-27T11:50:49.207Z,3526.88
2023-04-27T11:51:49.188Z,3273.75
2023-04-27T11:52:49.230Z,3054.38
2023-04-27T11:53:49.163Z,3144.38
2023-04-27T11:54:49.170Z,3155.62
2023-04-27T11:55:49.142Z,3211.88
2023-04-27T11:56:49.139Z,3121.88
2023-04-27T11:57:49.133Z,3003.75
2023-04-27T11:58:49.172Z,2795.62
2023-04-27T11:59:49.121Z,2874.38
2023-04-27T12:00:49.102Z,2846.25
2023-04-27T12:01:49.113Z,2818.12
2023-04-27T12:02:49.245Z,2795.62
2023-04-27T12:03:49.293Z,2885.62
2023-04-27T12:04:49.361Z,3082.50
2023-04-27T12:05:49.230Z,2953.12
2023-04-27T12:06:49.029Z,3105.00
2023-04-27T12:07:49.097Z,3279.38
2023-04-27T12:08:49.023Z,3127.50
2023-04-27T12:09:49.025Z,2981.25
2023-04-27T12:10:48.998Z,3088.12
2023-04-27T12:11:48.981Z,3020.62
2023-04-27T12:12:48.995Z,2846.25
2023-04-27T12:13:48.966Z,2981.25
2023-04-27T12:14:48.983Z,2823.75
2023-04-27T12:15:48.951Z,2857.50
2023-04-27T12:16:48.979Z,2655.00
2023-04-27T12:17:48.950Z,2671.88
2023-04-27T12:18:48.920Z,2475.00
2023-04-27T12:19:48.900Z,2587.50
2023-04-27T12:20:48.900Z,2683.12
2023-04-27T12:21:48.875Z,2666.25
2023-04-27T12:22:48.885Z,2761.88
2023-04-27T12:23:48.897Z,2958.75
2023-04-27T12:24:48.860Z,2953.12
2023-04-27T12:25:48.840Z,3133.12
2023-04-27T12:26:48.842Z,2835.00
2023-04-27T12:27:48.816Z,2958.75
2023-04-27T12:28:48.819Z,2587.50
2023-04-27T12:29:48.808Z,2823.75
2023-04-27T12:30:48.806Z,2497.50
2023-04-27T12:31:48.787Z,2413.12
2023-04-27T12:32:48.845Z,2418.75
2023-04-27T12:33:48.824Z,2435.62
2023-04-27T12:34:48.781Z,2711.25